createdAt,value
2022-12-08T00:01:38.356Z,19.50
2022-12-08T00:07:01.582Z,19.70
2022-12-08T00:12:09.518Z,30.58
2022-12-08T00:17:14.452Z,28.35
2022-12-08T00:22:18.536Z,25.85
2022-12-08T00:27:21.289Z,24.42
2022-12-08T00:32:24.141Z,28.63
2022-12-08T00:37:28.398Z,17.45
2022-12-08T00:42:31.132Z,26.13
2022-12-08T00:47:33.892Z,23.13
2022-12-08T00:52:38.314Z,24.13
2022-12-08T00:57:41.055Z,20.85
2022-12-08T01:02:43.840Z,25.73
2022-12-08T01:07:49.026Z,33.78
2022-12-08T01:12:51.888Z,33.15
2022-12-08T01:17:54.714Z,38.40
2022-12-08T01:22:58.816Z,27.35
2022-12-08T01:28:01.645Z,33.72
2022-12-08T01:33:05.102Z,17.70
2022-12-08T01:38:09.205Z,36.30
2022-12-08T01:43:16.712Z,30.55
2022-12-08T01:48:24.229Z,24.20
2022-12-08T01:53:33.662Z,31.10
2022-12-08T01:58:40.997Z,29.50
2022-12-08T02:03:48.741Z,31.92
2022-12-08T02:08:55.124Z,34.08
2022-12-08T02:13:59.380Z,37.13
2022-12-08T02:19:30.741Z,33.33
2022-12-08T02:24:39.125Z,29.27
2022-12-08T02:30:08.819Z,31.05
2022-12-08T02:35:15.912Z,19.50
2022-12-08T02:40:25.165Z,26.33
2022-12-08T02:45:32.876Z,25.33
2022-12-08T02:50:37.134Z,22.50
2022-12-08T02:55:51.096Z,30.02
2022-12-08T03:01:09.308Z,26.33
2022-12-08T03:06:23.210Z,28.50
2022-12-08T03:11:34.255Z,26.98
2022-12-08T03:16:41.587Z,26.90
2022-12-08T03:21:50.088Z,26.45
2022-12-08T03:26:58.409Z,20.30
2022-12-08T03:32:12.541Z,18.25
2022-12-08T03:37:17.018Z,22.98
2022-12-08T03:42:19.838Z,24.20
2022-12-08T03:47:22.596Z,24.85
2022-12-08T03:52:26.780Z,23.92
2022-12-08T03:57:29.528Z,24.77
2022-12-08T04:02:32.351Z,29.45
2022-12-08T04:07:36.560Z,25.65
2022-12-08T04:12:39.439Z,23.60
2022-12-08T04:17:42.365Z,26.55
2022-12-08T04:22:46.544Z,22.45
2022-12-08T04:27:49.583Z,29.23
2022-12-08T04:32:52.420Z,27.17
2022-12-08T04:37:56.576Z,32.55
2022-12-08T04:42:59.337Z,38.58
2022-12-08T04:48:02.529Z,42.03
2022-12-08T04:53:06.721Z,41.35
2022-12-08T04:58:12.535Z,39.67
2022-12-08T05:03:16.122Z,41.25
2022-12-08T05:08:20.322Z,32.33
2022-12-08T05:13:23.273Z,35.42
2022-12-08T05:18:26.106Z,38.20
2022-12-08T05:23:30.336Z,35.47
2022-12-08T05:28:41.216Z,25.25
2022-12-08T05:33:46.470Z,33.28
2022-12-08T05:38:50.945Z,29.95
2022-12-08T05:43:54.039Z,18.42
2022-12-08T05:48:56.870Z,21.40
2022-12-08T05:54:01.310Z,23.27
2022-12-08T05:59:06.943Z,21.48
2022-12-08T06:04:10.157Z,28.83
2022-12-08T06:09:14.292Z,26.08
2022-12-08T06:14:17.068Z,17.83
2022-12-08T06:19:19.962Z,18.58
2022-12-08T06:24:24.178Z,26.02
2022-12-08T06:29:26.962Z,20.27
2022-12-08T06:34:29.793Z,30.77
2022-12-08T06:39:34.056Z,32.00
2022-12-08T06:44:36.856Z,30.65
2022-12-08T06:49:39.693Z,30.33
2022-12-08T06:54:43.820Z,29.58
2022-12-08T06:59:46.709Z,24.90
2022-12-08T07:04:49.473Z,35.88
2022-12-08T07:09:53.593Z,35.10
2022-12-08T07:14:56.332Z,36.78
2022-12-08T07:19:59.144Z,40.67
2022-12-08T07:25:03.272Z,32.67
2022-12-08T07:30:07.617Z,33.40
2022-12-08T07:35:11.512Z,38.63
2022-12-08T07:40:16.493Z,35.15
2022-12-08T07:45:19.246Z,30.83
2022-12-08T07:50:22.132Z,25.00
2022-12-08T07:55:26.673Z,27.00
2022-12-08T08:00:29.507Z,31.00
2022-12-08T08:05:32.297Z,26.80
2022-12-08T08:10:36.419Z,27.30
2022-12-08T08:15:39.558Z,22.70
2022-12-08T08:20:42.682Z,24.50
2022-12-08T08:25:46.768Z,26.25
2022-12-08T08:30:50.457Z,29.45
2022-12-08T08:35:53.300Z,22.48
2022-12-08T08:40:57.785Z,29.58
2022-12-08T08:46:01.290Z,26.17
2022-12-08T08:51:08.980Z,28.65
2022-12-08T08:56:15.599Z,26.15
2022-12-08T09:01:19.885Z,22.77
2022-12-08T09:06:23.600Z,26.85
2022-12-08T09:11:28.584Z,23.55
2022-12-08T09:16:31.504Z,26.63
2022-12-08T09:21:34.547Z,21.63
2022-12-08T09:26:38.680Z,21.20
2022-12-08T09:31:41.920Z,23.38
2022-12-08T09:36:45.585Z,22.35
2022-12-08T09:41:53.528Z,23.55
2022-12-08T09:46:59.695Z,23.42
2022-12-08T09:52:04.567Z,25.15
2022-12-08T09:57:15.857Z,23.10
2022-12-08T10:02:23.799Z,20.65
2022-12-08T10:07:39.213Z,19.30
2022-12-08T10:12:48.642Z,20.67
2022-12-08T10:17:53.744Z,21.10
2022-12-08T10:23:06.202Z,22.05
2022-12-08T10:28:10.868Z,20.88
2022-12-08T10:33:16.485Z,24.67
2022-12-08T10:38:27.020Z,21.38
2022-12-08T10:43:33.023Z,20.65
2022-12-08T10:48:35.768Z,18.75
2022-12-08T10:53:47.192Z,11.27
2022-12-08T10:59:05.285Z,14.98
2022-12-08T11:04:14.328Z,12.15
2022-12-08T11:09:27.194Z,12.23
2022-12-08T11:14:34.068Z,9.75
2022-12-08T11:19:39.040Z,12.35
2022-12-08T11:24:41.953Z,9.48
2022-12-08T11:29:47.342Z,11.95
2022-12-08T11:34:55.105Z,8.00
2022-12-08T11:40:05.072Z,7.13
2022-12-08T11:45:18.534Z,7.57
2022-12-08T11:50:26.271Z,9.70
2022-12-08T11:55:37.169Z,14.07
2022-12-08T12:00:43.224Z,13.38
2022-12-08T12:11:51.809Z,14.50
2022-12-08T12:17:07.113Z,12.60
2022-12-08T12:22:16.533Z,8.68
2022-12-08T12:27:28.368Z,11.05
2022-12-08T12:32:46.521Z,10.55
2022-12-08T12:37:49.904Z,10.00
2022-12-08T12:43:14.612Z,8.40
2022-12-08T12:48:28.311Z,8.05
2022-12-08T12:53:51.433Z,9.13
2022-12-08T12:58:55.191Z,9.82
2022-12-08T13:04:08.288Z,9.38
2022-12-08T13:09:22.944Z,5.80
2022-12-08T13:14:30.463Z,7.10
2022-12-08T13:19:38.326Z,7.57
2022-12-08T13:24:41.113Z,9.15
2022-12-08T13:29:44.029Z,7.32
2022-12-08T13:34:52.809Z,6.57
2022-12-08T13:40:00.257Z,6.95
2022-12-08T13:45:48.765Z,7.10
2022-12-08T13:52:20.113Z,9.15
2022-12-08T14:01:25.710Z,7.80
2022-12-08T14:06:32.434Z,9.73
2022-12-08T14:11:38.114Z,9.80
2022-12-08T14:16:42.468Z,10.77
2022-12-08T14:22:10.272Z,12.50
2022-12-08T14:27:16.769Z,10.65
2022-12-08T14:32:39.628Z,14.05
2022-12-08T14:37:45.748Z,9.02
2022-12-08T14:42:51.533Z,9.88
2022-12-08T14:47:54.472Z,10.70
2022-12-08T14:52:59.128Z,9.27
2022-12-08T14:58:02.254Z,9.40
2022-12-08T15:03:07.672Z,10.93
2022-12-08T15:08:13.024Z,7.22
2022-12-08T15:13:23.707Z,9.05
2022-12-08T15:18:35.964Z,10.02
2022-12-08T15:23:44.800Z,8.63
2022-12-08T15:28:48.410Z,9.95
2022-12-08T15:33:51.267Z,11.50
2022-12-08T15:38:58.904Z,10.13
2022-12-08T15:44:02.263Z,10.02
2022-12-08T15:49:05.526Z,9.10
2022-12-08T15:54:09.680Z,10.50
2022-12-08T15:59:18.028Z,9.05
2022-12-08T16:05:18.421Z,10.25
2022-12-08T16:09:46.788Z,13.55
2022-12-08T16:20:15.686Z,11.45
2022-12-08T16:25:22.081Z,13.77
2022-12-08T16:30:25.355Z,14.65
2022-12-08T16:35:28.332Z,14.05
2022-12-08T16:40:32.665Z,14.93
2022-12-08T16:45:41.473Z,15.75
2022-12-08T16:50:47.557Z,20.30
2022-12-08T16:55:51.729Z,17.52
2022-12-08T17:00:54.572Z,17.23
2022-12-08T17:05:57.385Z,18.92
2022-12-08T17:11:10.228Z,23.40
2022-12-08T17:16:16.786Z,19.80
2022-12-08T17:21:19.654Z,21.60
2022-12-08T17:26:23.744Z,20.35
2022-12-08T17:31:29.879Z,23.48
2022-12-08T17:36:33.652Z,22.40
2022-12-08T17:41:38.449Z,20.73
2022-12-08T17:46:43.384Z,27.02
2022-12-08T17:51:48.804Z,27.80
2022-12-08T17:56:53.050Z,31.10
2022-12-08T18:01:56.898Z,26.77
2022-12-08T18:07:01.230Z,33.10
2022-12-08T18:12:05.995Z,25.70
2022-12-08T18:17:09.925Z,32.42
2022-12-08T18:22:13.305Z,48.05
2022-12-08T18:27:17.465Z,55.72
2022-12-08T18:32:23.495Z,50.55
2022-12-08T18:37:26.567Z,45.92
2022-12-08T18:42:30.870Z,43.95
2022-12-08T18:47:34.427Z,46.00
2022-12-08T18:52:37.262Z,38.60
2022-12-08T18:57:43.026Z,38.85
2022-12-08T19:02:46.424Z,41.42
2022-12-08T19:07:49.593Z,38.65
2022-12-08T19:12:54.080Z,39.15
2022-12-08T19:17:56.900Z,35.17
2022-12-08T19:22:59.653Z,37.95
2022-12-08T19:28:04.035Z,40.85
2022-12-08T19:33:06.878Z,37.78
2022-12-08T19:38:09.649Z,45.97
2022-12-08T19:43:46.474Z,43.08
2022-12-08T19:48:49.283Z,39.90
2022-12-08T19:53:52.051Z,47.38
2022-12-08T19:58:56.190Z,46.75
2022-12-08T20:03:58.927Z,44.88
2022-12-08T20:09:01.741Z,56.03
2022-12-08T20:14:06.380Z,57.13
2022-12-08T20:19:09.130Z,48.40
2022-12-08T20:24:11.961Z,41.67
2022-12-08T20:29:17.095Z,40.88
2022-12-08T20:34:20.523Z,40.83
2022-12-08T20:39:23.365Z,44.35
2022-12-08T20:44:29.263Z,40.60
2022-12-08T20:49:34.705Z,37.47
2022-12-08T20:54:38.129Z,41.90
2022-12-08T20:59:42.406Z,45.55
2022-12-08T21:04:45.603Z,39.17
2022-12-08T21:09:48.816Z,32.17
2022-12-08T21:14:53.153Z,38.95
2022-12-08T21:19:56.030Z,39.20
2022-12-08T21:24:58.834Z,44.67
2022-12-08T21:30:03.079Z,41.10
2022-12-08T21:35:06.807Z,47.95
2022-12-08T21:40:11.025Z,47.35
2022-12-08T21:45:18.472Z,54.17
2022-12-08T21:50:22.447Z,50.75
2022-12-08T21:55:25.917Z,55.30
2022-12-08T22:00:31.491Z,61.35
2022-12-08T22:05:37.242Z,64.45
2022-12-08T22:10:40.687Z,68.30
2022-12-08T22:15:45.303Z,67.47
2022-12-08T22:20:48.325Z,66.82
2022-12-08T22:25:57.981Z,62.38
2022-12-08T22:31:02.902Z,52.00
2022-12-08T22:36:10.901Z,51.08
2022-12-08T22:41:14.853Z,52.22
2022-12-08T22:46:20.811Z,62.95
2022-12-08T22:51:24.132Z,66.75
2022-12-08T22:56:27.303Z,60.67
2022-12-08T23:01:33.861Z,65.70
2022-12-08T23:06:37.144Z,72.90
2022-12-08T23:11:40.229Z,63.33
2022-12-08T23:16:45.059Z,69.93
2022-12-08T23:21:48.329Z,82.07
2022-12-08T23:26:51.478Z,79.93
2022-12-08T23:31:56.036Z,71.43
2022-12-08T23:36:59.218Z,76.65
2022-12-08T23:42:02.518Z,76.03
2022-12-08T23:47:06.967Z,77.78
2022-12-08T23:52:12.830Z,85.57
2022-12-08T23:57:16.012Z,80.10
